Sumisemaru No.5 — JE3162 — position and weather

sailwx.info

Track history (hours):
 
Tides and Currents Weather Stations Pressure Air Temp Water Temp Dewpoint Dewpoint Depression Visibility Wind Speed Wind Dir Waves Ship Positions

Sumisemaru No.5

Last reported at 2018-Apr-24 04:26 UTC. Time now 2018-Apr-26 06:01 UTC.
Position N 34°30' E 137°56'.

Length 96 m; draft 6.3 m.

Type: Cargo ship. MMSI: 431700423.

Date/timePositionNaut miles runAvg speedWind from/ knotsBaromVisibWave heightAir tempDewpointWater temp
2018-Apr-24 04:26N 34°30' E 137°56'612.6
2018-Apr-24 03:58N 34°31' E 138°03'712.9
2018-Apr-24 03:27N 34°31' E 138°12'613.4
2018-Apr-24 03:00N 34°31' E 138°19'713.0
2018-Apr-24 02:28N 34°31' E 138°27'612.5
2018-Apr-24 02:00N 34°31' E 138°34'712.6
2018-Apr-24 01:28N 34°31' E 138°43'612.3
2018-Apr-24 01:00N 34°31' E 138°50'612.1
2018-Apr-24 00:30N 34°32' E 138°57'711.9
2018-Apr-23 23:57N 34°33' E 139°05'511.2
2018-Apr-23 23:30N 34°34' E 139°10'510.7
2018-Apr-23 23:00N 34°35' E 139°17'811.0
2018-Apr-23 22:17N 34°37' E 139°26'310.9
2018-Apr-23 21:58N 34°38' E 139°30'510.4
2018-Apr-23 21:29N 34°41' E 139°36'911.9
2018-Apr-23 20:42N 34°45' E 139°45'313.1
2018-Apr-23 20:28N 34°47' E 139°48'1113.2
2018-Apr-23 19:40N 34°52' E 139°60'212.5
2018-Apr-23 19:30N 34°53' E 140°02'612.3
2018-Apr-23 19:00N 34°56' E 140°08'612.1
2018-Apr-23 18:30N 34°59' E 140°15'  
2018-Apr-20 19:20N 35°04' E 140°21'2813.2
2018-Apr-20 17:14N 34°51' E 139°51'311.5
2018-Apr-20 16:59N 34°52' E 139°47'613.7
2018-Apr-20 16:30N 34°57' E 139°43'713.3
2018-Apr-20 16:00N 35°04' E 139°44'713.9
2018-Apr-20 15:30N 35°11' E 139°45'612.4
2018-Apr-20 15:00N 35°17' E 139°45'612.3
2018-Apr-20 14:30N 35°22' E 139°42'612.2
2018-Apr-20 14:00N 35°28' E 139°40'1 1.1
2018-Apr-20 13:30N 35°29' E 139°40'0 0.0
2018-Apr-20 13:00N 35°29' E 139°40'0 0.0
2018-Apr-20 12:30N 35°29' E 139°40'0 0.0
2018-Apr-20 12:00N 35°29' E 139°40'0 0.0
2018-Apr-20 11:30N 35°29' E 139°40'0 0.0
2018-Apr-20 11:00N 35°29' E 139°40'0 0.0
2018-Apr-20 10:30N 35°29' E 139°40'0 0.0
2018-Apr-20 10:00N 35°29' E 139°40'0 0.0
2018-Apr-20 09:30N 35°29' E 139°40'0 0.0
2018-Apr-20 09:00N 35°29' E 139°40'0 0.0
2018-Apr-20 08:30N 35°29' E 139°40'0 0.0
2018-Apr-20 08:00N 35°29' E 139°40'0 0.0
2018-Apr-20 07:30N 35°29' E 139°40'0 0.0
2018-Apr-20 07:00N 35°29' E 139°40'0 0.0
2018-Apr-20 06:30N 35°29' E 139°40'0 0.0
2018-Apr-20 06:00N 35°29' E 139°40'0 0.0
2018-Apr-20 05:30N 35°29' E 139°40'0 0.0
2018-Apr-20 05:00N 35°29' E 139°40'0 0.0
2018-Apr-20 04:30N 35°29' E 139°40'2 4.4
2018-Apr-20 04:00N 35°27' E 139°41'1 2.0
2018-Apr-20 03:30N 35°26' E 139°42'0 0.1
2018-Apr-20 03:00N 35°26' E 139°42'0 0.0
2018-Apr-20 02:30N 35°26' E 139°42'0 0.1
2018-Apr-20 02:00N 35°26' E 139°42'0 0.1
2018-Apr-20 01:30N 35°26' E 139°42'0 0.0
2018-Apr-20 01:01N 35°26' E 139°42'0 0.4
2018-Apr-20 00:30N 35°26' E 139°42'510.5
2018-Apr-20 00:00N 35°20' E 139°43'611.8
2018-Apr-19 23:30N 35°15' E 139°47'612.1
2018-Apr-19 23:00N 35°09' E 139°46'611.6
2018-Apr-19 22:30N 35°04' E 139°43'611.9
2018-Apr-19 22:00N 35°00' E 139°38'612.9
2018-Apr-19 21:30N 34°56' E 139°31'813.4
2018-Apr-19 20:56N 34°52' E 139°24'812.9
2018-Apr-19 20:17N 34°46' E 139°16'512.8
2018-Apr-19 19:55N 34°43' E 139°12'613.0
2018-Apr-19 19:25N 34°39' E 139°06'912.8
2018-Apr-19 18:43N 34°32' E 138°58'312.8
2018-Apr-19 18:26N 34°30' E 138°55'3212.8
2018-Apr-19 15:57N 34°28' E 138°17'1712.1
2018-Apr-19 14:34N 34°22' E 137°58'163 4.1
2018-Apr-17 23:09N 33°42' E 134°47'213.8
2018-Apr-17 23:00N 33°44' E 134°48'813.5
2018-Apr-17 22:24N 33°51' E 134°54'614.2
2018-Apr-17 22:00N 33°56' E 134°55'714.1
2018-Apr-17 21:30N 34°03' E 134°57'713.9
2018-Apr-17 21:00N 34°10' E 134°58'714.9
2018-Apr-17 20:31N 34°17' E 134°58'612.9
2018-Apr-17 20:01N 34°23' E 135°01'714.9
2018-Apr-17 19:31N 34°28' E 135°08'714.4
2018-Apr-17 19:00N 34°32' E 135°15'713.6
2018-Apr-17 18:30N 34°37' E 135°21'611.2
2018-Apr-17 18:00N 34°40' E 135°27'0 0.1
2018-Apr-17 17:30N 34°40' E 135°27'0 0.0
2018-Apr-17 17:00N 34°40' E 135°27'0 0.0
2018-Apr-17 16:29N 34°40' E 135°27'0 0.0
2018-Apr-17 16:00N 34°40' E 135°27'0 0.0
2018-Apr-17 15:30N 34°40' E 135°27'0 0.0
2018-Apr-17 14:59N 34°40' E 135°27'0 0.0
2018-Apr-17 14:29N 34°40' E 135°27'0 0.0
2018-Apr-17 14:00N 34°40' E 135°27'0 0.0
2018-Apr-17 13:30N 34°40' E 135°27'0 0.0
2018-Apr-17 13:00N 34°40' E 135°27'0 0.0
2018-Apr-17 12:29N 34°40' E 135°27'0 0.0
2018-Apr-17 11:59N 34°40' E 135°27'0 0.0
2018-Apr-17 11:30N 34°40' E 135°27'0 0.0
2018-Apr-17 10:59N 34°40' E 135°27'0 0.0
2018-Apr-17 10:29N 34°40' E 135°27'0 0.0
2018-Apr-17 10:00N 34°40' E 135°27'0 0.0
2018-Apr-17 09:30N 34°40' E 135°27'0 0.0
2018-Apr-17 08:59N 34°40' E 135°27'0 0.0
2018-Apr-17 08:29N 34°40' E 135°27'0 0.0
2018-Apr-17 07:59N 34°40' E 135°27'0 0.0
2018-Apr-17 07:30N 34°40' E 135°27'0 0.0
2018-Apr-17 06:59N 34°40' E 135°27'0 0.0
2018-Apr-17 06:29N 34°40' E 135°27'0 0.2
2018-Apr-17 06:00N 34°40' E 135°27'2 4.7
2018-Apr-17 05:30N 34°39' E 135°24'510.1
2018-Apr-17 05:00N 34°36' E 135°19'1 1.5
2018-Apr-17 04:31N 34°36' E 135°18'0 0.0
2018-Apr-17 04:00N 34°36' E 135°18'0 0.1
2018-Apr-17 03:30N 34°36' E 135°18'0 0.0
2018-Apr-17 02:59N 34°36' E 135°18'0 0.0
2018-Apr-17 02:30N 34°36' E 135°18'0 0.0
2018-Apr-17 02:00N 34°36' E 135°18'0 0.0
2018-Apr-17 01:30N 34°36' E 135°18'0 0.0
2018-Apr-17 01:00N 34°36' E 135°18'0 0.0
2018-Apr-17 00:30N 34°36' E 135°18'0 0.0
2018-Apr-17 00:00N 34°36' E 135°18'0 0.0
2018-Apr-16 23:30N 34°36' E 135°18'0 0.0
2018-Apr-16 23:00N 34°36' E 135°18'0 0.0
2018-Apr-16 22:30N 34°36' E 135°18'0 0.0
2018-Apr-16 22:00N 34°36' E 135°18'0 0.0
2018-Apr-16 21:30N 34°36' E 135°18'0 0.0
2018-Apr-16 21:00N 34°36' E 135°18'0 0.0
2018-Apr-16 20:29N 34°36' E 135°18'0 0.0
2018-Apr-16 20:00N 34°36' E 135°18'0 0.0
2018-Apr-16 19:30N 34°36' E 135°18'0 0.0
2018-Apr-16 19:00N 34°36' E 135°18'0 0.0
2018-Apr-16 18:30N 34°36' E 135°18'0 0.0
2018-Apr-16 18:00N 34°36' E 135°18'0 0.0
2018-Apr-16 17:30N 34°36' E 135°18'0 0.0
2018-Apr-16 17:00N 34°36' E 135°18'0 0.1
2018-Apr-16 16:30N 34°36' E 135°18'3 5.1
2018-Apr-16 16:01N 34°35' E 135°15'612.2
2018-Apr-16 15:30N 34°35' E 135°08'612.5
2018-Apr-16 15:00N 34°37' E 135°01'612.4
2018-Apr-16 14:30N 34°37' E 134°53'612.3
2018-Apr-16 14:00N 34°39' E 134°46'611.6
2018-Apr-16 13:29N 34°42' E 134°40'711.6
2018-Apr-16 12:55N 34°42' E 134°32'511.7
2018-Apr-16 12:29N 34°42' E 134°25'4 6.8
2018-Apr-16 11:54N 34°45' E 134°22'0 0.0
2018-Apr-16 02:06N 34°45' E 134°22'1 3.6
2018-Apr-16 01:55N 34°44' E 134°22'4 4.6
2018-Apr-16 01:09N 34°42' E 134°26'213.9
2018-Apr-16 01:00N 34°43' E 134°28'714.1
2018-Apr-16 00:30N 34°42' E 134°37'714.2
2018-Apr-16 00:00N 34°40' E 134°45'815.2
2018-Apr-15 23:31N 34°37' E 134°54'815.3
2018-Apr-15 23:00N 34°37' E 135°03'612.2
2018-Apr-15 22:31N 34°31' E 135°04'713.6
2018-Apr-15 22:00N 34°24' E 135°02'713.0
2018-Apr-15 21:30N 34°18' E 134°59'612.7
2018-Apr-15 21:00N 34°11' E 134°59'612.9
2018-Apr-15 20:30N 34°05' E 134°59'612.7
2018-Apr-15 20:00N 33°58' E 134°59'612.3
2018-Apr-15 19:30N 33°52' E 135°00'103 7.8
2018-Apr-15 06:21N 34°37' E 136°53'412.4
2018-Apr-15 06:00N 34°38' E 136°48'712.8
2018-Apr-15 05:29N 34°39' E 136°40'6 0.9
2018-Apr-14 22:58N 34°37' E 136°34'3 3.8
2018-Apr-14 22:17N 34°39' E 136°35'0 0.2
2018-Apr-14 21:59N 34°39' E 136°35'0 0.0
2018-Apr-14 15:05N 34°39' E 136°35'0 0.0
2018-Apr-14 12:05N 34°39' E 136°35'0 0.0
2018-Apr-14 11:47N 34°39' E 136°35'0 0.1
2018-Apr-14 10:13N 34°39' E 136°35'1 4.3
2018-Apr-14 10:00N 34°40' E 136°36'612.3
2018-Apr-14 09:30N 34°45' E 136°39'612.8
2018-Apr-14 09:00N 34°51' E 136°43'612.3
2018-Apr-14 08:30N 34°56' E 136°46'612.0
2018-Apr-14 08:01N 35°01' E 136°50'3 5.2
2018-Apr-14 07:28N 35°04' E 136°52'0 0.0
2018-Apr-14 06:59N 35°04' E 136°52'0 0.0
2018-Apr-14 06:25N 35°04' E 136°52'0 0.0
2018-Apr-14 05:58N 35°04' E 136°52'0 0.0
2018-Apr-14 05:28N 35°04' E 136°52'0 0.0
2018-Apr-14 04:58N 35°04' E 136°52'0 0.0
2018-Apr-14 04:28N 35°04' E 136°52'  
Track history (hours):
 
Tides and Currents Weather Stations Pressure Air Temp Water Temp Dewpoint Dewpoint Depression Visibility Wind Speed Wind Dir Waves Ship Positions

Sumisemaru No.5

Last reported at 2018-Apr-24 04:26 UTC. Time now 2018-Apr-26 06:01 UTC.
Position N 34°30' E 137°56'.

Length 96 m; draft 6.3 m.

Type: Cargo ship. MMSI: 431700423.

Date/timePositionNaut miles runAvg speedWind from/ knotsBaromVisibWave heightAir tempDewpointWater temp
2018-Apr-24 04:26N 34°30' E 137°56'612.6
2018-Apr-24 03:58N 34°31' E 138°03'712.9
2018-Apr-24 03:27N 34°31' E 138°12'613.4
2018-Apr-24 03:00N 34°31' E 138°19'713.0
2018-Apr-24 02:28N 34°31' E 138°27'612.5
2018-Apr-24 02:00N 34°31' E 138°34'712.6
2018-Apr-24 01:28N 34°31' E 138°43'612.3
2018-Apr-24 01:00N 34°31' E 138°50'612.1
2018-Apr-24 00:30N 34°32' E 138°57'711.9
2018-Apr-23 23:57N 34°33' E 139°05'511.2
2018-Apr-23 23:30N 34°34' E 139°10'510.7
2018-Apr-23 23:00N 34°35' E 139°17'811.0
2018-Apr-23 22:17N 34°37' E 139°26'310.9
2018-Apr-23 21:58N 34°38' E 139°30'510.4
2018-Apr-23 21:29N 34°41' E 139°36'911.9
2018-Apr-23 20:42N 34°45' E 139°45'313.1
2018-Apr-23 20:28N 34°47' E 139°48'1113.2
2018-Apr-23 19:40N 34°52' E 139°60'212.5
2018-Apr-23 19:30N 34°53' E 140°02'612.3
2018-Apr-23 19:00N 34°56' E 140°08'612.1
2018-Apr-23 18:30N 34°59' E 140°15'  
2018-Apr-20 19:20N 35°04' E 140°21'2813.2
2018-Apr-20 17:14N 34°51' E 139°51'311.5
2018-Apr-20 16:59N 34°52' E 139°47'613.7
2018-Apr-20 16:30N 34°57' E 139°43'713.3
2018-Apr-20 16:00N 35°04' E 139°44'713.9
2018-Apr-20 15:30N 35°11' E 139°45'612.4
2018-Apr-20 15:00N 35°17' E 139°45'612.3
2018-Apr-20 14:30N 35°22' E 139°42'612.2
2018-Apr-20 14:00N 35°28' E 139°40'1 1.1
2018-Apr-20 13:30N 35°29' E 139°40'0 0.0
2018-Apr-20 13:00N 35°29' E 139°40'0 0.0
2018-Apr-20 12:30N 35°29' E 139°40'0 0.0
2018-Apr-20 12:00N 35°29' E 139°40'0 0.0
2018-Apr-20 11:30N 35°29' E 139°40'0 0.0
2018-Apr-20 11:00N 35°29' E 139°40'0 0.0
2018-Apr-20 10:30N 35°29' E 139°40'0 0.0
2018-Apr-20 10:00N 35°29' E 139°40'0 0.0
2018-Apr-20 09:30N 35°29' E 139°40'0 0.0
2018-Apr-20 09:00N 35°29' E 139°40'0 0.0
2018-Apr-20 08:30N 35°29' E 139°40'0 0.0
2018-Apr-20 08:00N 35°29' E 139°40'0 0.0
2018-Apr-20 07:30N 35°29' E 139°40'0 0.0
2018-Apr-20 07:00N 35°29' E 139°40'0 0.0
2018-Apr-20 06:30N 35°29' E 139°40'0 0.0
2018-Apr-20 06:00N 35°29' E 139°40'0 0.0
2018-Apr-20 05:30N 35°29' E 139°40'0 0.0
2018-Apr-20 05:00N 35°29' E 139°40'0 0.0
2018-Apr-20 04:30N 35°29' E 139°40'2 4.4
2018-Apr-20 04:00N 35°27' E 139°41'1 2.0
2018-Apr-20 03:30N 35°26' E 139°42'0 0.1
2018-Apr-20 03:00N 35°26' E 139°42'0 0.0
2018-Apr-20 02:30N 35°26' E 139°42'0 0.1
2018-Apr-20 02:00N 35°26' E 139°42'0 0.1
2018-Apr-20 01:30N 35°26' E 139°42'0 0.0
2018-Apr-20 01:01N 35°26' E 139°42'0 0.4
2018-Apr-20 00:30N 35°26' E 139°42'510.5
2018-Apr-20 00:00N 35°20' E 139°43'611.8
2018-Apr-19 23:30N 35°15' E 139°47'612.1
2018-Apr-19 23:00N 35°09' E 139°46'611.6
2018-Apr-19 22:30N 35°04' E 139°43'611.9
2018-Apr-19 22:00N 35°00' E 139°38'612.9
2018-Apr-19 21:30N 34°56' E 139°31'813.4
2018-Apr-19 20:56N 34°52' E 139°24'812.9
2018-Apr-19 20:17N 34°46' E 139°16'512.8
2018-Apr-19 19:55N 34°43' E 139°12'613.0
2018-Apr-19 19:25N 34°39' E 139°06'912.8
2018-Apr-19 18:43N 34°32' E 138°58'312.8
2018-Apr-19 18:26N 34°30' E 138°55'3212.8
2018-Apr-19 15:57N 34°28' E 138°17'1712.1
2018-Apr-19 14:34N 34°22' E 137°58'163 4.1
2018-Apr-17 23:09N 33°42' E 134°47'213.8
2018-Apr-17 23:00N 33°44' E 134°48'813.5
2018-Apr-17 22:24N 33°51' E 134°54'614.2
2018-Apr-17 22:00N 33°56' E 134°55'714.1
2018-Apr-17 21:30N 34°03' E 134°57'713.9
2018-Apr-17 21:00N 34°10' E 134°58'714.9
2018-Apr-17 20:31N 34°17' E 134°58'612.9
2018-Apr-17 20:01N 34°23' E 135°01'714.9
2018-Apr-17 19:31N 34°28' E 135°08'714.4
2018-Apr-17 19:00N 34°32' E 135°15'713.6
2018-Apr-17 18:30N 34°37' E 135°21'611.2
2018-Apr-17 18:00N 34°40' E 135°27'0 0.1
2018-Apr-17 17:30N 34°40' E 135°27'0 0.0
2018-Apr-17 17:00N 34°40' E 135°27'0 0.0
2018-Apr-17 16:29N 34°40' E 135°27'0 0.0
2018-Apr-17 16:00N 34°40' E 135°27'0 0.0
2018-Apr-17 15:30N 34°40' E 135°27'0 0.0
2018-Apr-17 14:59N 34°40' E 135°27'0 0.0
2018-Apr-17 14:29N 34°40' E 135°27'0 0.0
2018-Apr-17 14:00N 34°40' E 135°27'0 0.0
2018-Apr-17 13:30N 34°40' E 135°27'0 0.0
2018-Apr-17 13:00N 34°40' E 135°27'0 0.0
2018-Apr-17 12:29N 34°40' E 135°27'0 0.0
2018-Apr-17 11:59N 34°40' E 135°27'0 0.0
2018-Apr-17 11:30N 34°40' E 135°27'0 0.0
2018-Apr-17 10:59N 34°40' E 135°27'0 0.0
2018-Apr-17 10:29N 34°40' E 135°27'0 0.0
2018-Apr-17 10:00N 34°40' E 135°27'0 0.0
2018-Apr-17 09:30N 34°40' E 135°27'0 0.0
2018-Apr-17 08:59N 34°40' E 135°27'0 0.0
2018-Apr-17 08:29N 34°40' E 135°27'0 0.0
2018-Apr-17 07:59N 34°40' E 135°27'0 0.0
2018-Apr-17 07:30N 34°40' E 135°27'0 0.0
2018-Apr-17 06:59N 34°40' E 135°27'0 0.0
2018-Apr-17 06:29N 34°40' E 135°27'0 0.2
2018-Apr-17 06:00N 34°40' E 135°27'2 4.7
2018-Apr-17 05:30N 34°39' E 135°24'510.1
2018-Apr-17 05:00N 34°36' E 135°19'1 1.5
2018-Apr-17 04:31N 34°36' E 135°18'0 0.0
2018-Apr-17 04:00N 34°36' E 135°18'0 0.1
2018-Apr-17 03:30N 34°36' E 135°18'0 0.0
2018-Apr-17 02:59N 34°36' E 135°18'0 0.0
2018-Apr-17 02:30N 34°36' E 135°18'0 0.0
2018-Apr-17 02:00N 34°36' E 135°18'0 0.0
2018-Apr-17 01:30N 34°36' E 135°18'0 0.0
2018-Apr-17 01:00N 34°36' E 135°18'0 0.0
2018-Apr-17 00:30N 34°36' E 135°18'0 0.0
2018-Apr-17 00:00N 34°36' E 135°18'0 0.0
2018-Apr-16 23:30N 34°36' E 135°18'0 0.0
2018-Apr-16 23:00N 34°36' E 135°18'0 0.0
2018-Apr-16 22:30N 34°36' E 135°18'0 0.0
2018-Apr-16 22:00N 34°36' E 135°18'0 0.0
2018-Apr-16 21:30N 34°36' E 135°18'0 0.0
2018-Apr-16 21:00N 34°36' E 135°18'0 0.0
2018-Apr-16 20:29N 34°36' E 135°18'0 0.0
2018-Apr-16 20:00N 34°36' E 135°18'0 0.0
2018-Apr-16 19:30N 34°36' E 135°18'0 0.0
2018-Apr-16 19:00N 34°36' E 135°18'0 0.0
2018-Apr-16 18:30N 34°36' E 135°18'0 0.0
2018-Apr-16 18:00N 34°36' E 135°18'0 0.0
2018-Apr-16 17:30N 34°36' E 135°18'0 0.0
2018-Apr-16 17:00N 34°36' E 135°18'0 0.1
2018-Apr-16 16:30N 34°36' E 135°18'3 5.1
2018-Apr-16 16:01N 34°35' E 135°15'612.2
2018-Apr-16 15:30N 34°35' E 135°08'612.5
2018-Apr-16 15:00N 34°37' E 135°01'612.4
2018-Apr-16 14:30N 34°37' E 134°53'612.3
2018-Apr-16 14:00N 34°39' E 134°46'611.6
2018-Apr-16 13:29N 34°42' E 134°40'711.6
2018-Apr-16 12:55N 34°42' E 134°32'511.7
2018-Apr-16 12:29N 34°42' E 134°25'4 6.8
2018-Apr-16 11:54N 34°45' E 134°22'0 0.0
2018-Apr-16 02:06N 34°45' E 134°22'1 3.6
2018-Apr-16 01:55N 34°44' E 134°22'4 4.6
2018-Apr-16 01:09N 34°42' E 134°26'213.9
2018-Apr-16 01:00N 34°43' E 134°28'714.1
2018-Apr-16 00:30N 34°42' E 134°37'714.2
2018-Apr-16 00:00N 34°40' E 134°45'815.2
2018-Apr-15 23:31N 34°37' E 134°54'815.3
2018-Apr-15 23:00N 34°37' E 135°03'612.2
2018-Apr-15 22:31N 34°31' E 135°04'713.6
2018-Apr-15 22:00N 34°24' E 135°02'713.0
2018-Apr-15 21:30N 34°18' E 134°59'612.7
2018-Apr-15 21:00N 34°11' E 134°59'612.9
2018-Apr-15 20:30N 34°05' E 134°59'612.7
2018-Apr-15 20:00N 33°58' E 134°59'612.3
2018-Apr-15 19:30N 33°52' E 135°00'103 7.8
2018-Apr-15 06:21N 34°37' E 136°53'412.4
2018-Apr-15 06:00N 34°38' E 136°48'712.8
2018-Apr-15 05:29N 34°39' E 136°40'6 0.9
2018-Apr-14 22:58N 34°37' E 136°34'3 3.8
2018-Apr-14 22:17N 34°39' E 136°35'0 0.2
2018-Apr-14 21:59N 34°39' E 136°35'0 0.0
2018-Apr-14 15:05N 34°39' E 136°35'0 0.0
2018-Apr-14 12:05N 34°39' E 136°35'0 0.0
2018-Apr-14 11:47N 34°39' E 136°35'0 0.1
2018-Apr-14 10:13N 34°39' E 136°35'1 4.3
2018-Apr-14 10:00N 34°40' E 136°36'612.3
2018-Apr-14 09:30N 34°45' E 136°39'612.8
2018-Apr-14 09:00N 34°51' E 136°43'612.3
2018-Apr-14 08:30N 34°56' E 136°46'612.0
2018-Apr-14 08:01N 35°01' E 136°50'3 5.2
2018-Apr-14 07:28N 35°04' E 136°52'0 0.0
2018-Apr-14 06:59N 35°04' E 136°52'0 0.0
2018-Apr-14 06:25N 35°04' E 136°52'0 0.0
2018-Apr-14 05:58N 35°04' E 136°52'0 0.0
2018-Apr-14 05:28N 35°04' E 136°52'0 0.0
2018-Apr-14 04:58N 35°04' E 136°52'0 0.0
2018-Apr-14 04:28N 35°04' E 136°52'  

Dump ship's entire track history